Time;durP1;ratioP1;P1;durP2;ratioP2;P2;SDS_P1;SDS_P2;PMS_P1;PMS_P2;Temp;Humidity;BMP_temperature;BMP_pressure;BME280_temperature;BME280_humidity;BME280_pressure;Samples;Min_cycle;Max_cycle;Signal;HPM_P1;HPM_P2
2022/05/17 00:00:35;;;;;;;3.50;1.77;;;;;;;;;;5008271;28;20034;-67
2022/05/17 00:03:00;;;;;;;6.68;2.10;;;;;;;;;;5007619;28;20124;-67
2022/05/17 00:05:27;;;;;;;5.50;2.20;;;;;;;;;;5007002;28;20049;-67
2022/05/17 00:07:53;;;;;;;3.83;1.80;;;;;;;;;;5008782;28;20029;-67
2022/05/17 00:10:21;;;;;;;2.78;1.63;;;;;;;;;;5006382;28;20129;-67
2022/05/17 00:12:47;;;;;;;7.97;1.70;;;;;;;;;;5007799;28;20671;-68
2022/05/17 00:15:12;;;;;;;5.50;1.80;;;;;;;;;;5008004;28;20041;-67
2022/05/17 00:17:37;;;;;;;5.10;1.70;;;;;;;;;;5008427;28;20044;-68
2022/05/17 00:20:04;;;;;;;4.10;1.77;;;;;;;;;;5008060;28;20053;-68
2022/05/17 00:22:29;;;;;;;2.80;1.70;;;;;;;;;;5003291;28;20041;-67
2022/05/17 00:24:55;;;;;;;2.92;1.58;;;;;;;;;;5003936;28;20045;-67
2022/05/17 00:27:20;;;;;;;4.53;2.10;;;;;;;;;;5004343;28;20418;-67
2022/05/17 00:29:45;;;;;;;4.53;1.80;;;;;;;;;;5007544;28;20049;-67
2022/05/17 00:32:11;;;;;;;5.25;1.73;;;;;;;;;;5005986;28;20034;-67
2022/05/17 00:34:36;;;;;;;4.07;2.00;;;;;;;;;;5008497;28;20558;-67
2022/05/17 00:37:02;;;;;;;2.80;1.85;;;;;;;;;;5007001;28;20511;-67
2022/05/17 00:39:27;;;;;;;4.00;1.90;;;;;;;;;;5002107;28;20038;-67
2022/05/17 00:41:52;;;;;;;5.55;1.73;;;;;;;;;;5005742;28;20303;-67
2022/05/17 00:47:25;;;;;;;5.28;1.77;;;;;;;;;;5004869;28;20049;-68
2022/05/17 00:50:04;;;;;;;5.07;1.90;;;;;;;;;;5007939;28;20046;-67
2022/05/17 00:52:40;;;;;;;4.18;1.98;;;;;;;;;;5004794;28;20034;-67
2022/05/17 00:55:14;;;;;;;5.50;2.13;;;;;;;;;;5002994;28;20097;-67
2022/05/17 00:57:46;;;;;;;4.20;2.78;;;;;;;;;;5005772;28;20072;-67
2022/05/17 01:00:14;;;;;;;6.05;2.30;;;;;;;;;;5007411;28;20062;-67
2022/05/17 01:02:47;;;;;;;3.47;2.10;;;;;;;;;;5006857;28;20064;-67
2022/05/17 01:05:14;;;;;;;3.83;2.03;;;;;;;;;;5007400;28;20041;-67
2022/05/17 01:07:42;;;;;;;4.60;2.00;;;;;;;;;;5003456;28;20018;-68
2022/05/17 01:10:09;;;;;;;5.82;2.53;;;;;;;;;;5005781;28;20408;-67
2022/05/17 01:12:36;;;;;;;5.50;2.13;;;;;;;;;;5007095;28;20594;-67
2022/05/17 01:15:04;;;;;;;5.00;2.20;;;;;;;;;;5004527;28;20049;-67
2022/05/17 01:17:32;;;;;;;5.93;2.25;;;;;;;;;;5006920;28;20046;-68
2022/05/17 01:19:58;;;;;;;8.43;2.63;;;;;;;;;;5006461;28;20030;-67
2022/05/17 01:22:24;;;;;;;6.82;2.22;;;;;;;;;;5000670;28;20026;-68
2022/05/17 01:24:49;;;;;;;5.60;2.70;;;;;;;;;;5006335;28;20050;-67
2022/05/17 01:27:42;;;;;;;5.40;2.20;;;;;;;;;;5006321;28;20030;-67
2022/05/17 01:30:16;;;;;;;4.20;2.50;;;;;;;;;;5003524;28;20042;-67
2022/05/17 01:32:41;;;;;;;5.80;2.10;;;;;;;;;;4987745;28;20057;-67
2022/05/17 01:35:08;;;;;;;8.18;2.33;;;;;;;;;;4989581;28;20042;-67
2022/05/17 01:37:34;;;;;;;4.35;2.10;;;;;;;;;;5000819;28;20112;-68
2022/05/17 01:39:59;;;;;;;7.65;2.78;;;;;;;;;;4999167;28;20729;-67
2022/05/17 01:42:24;;;;;;;4.03;2.60;;;;;;;;;;5007274;28;20407;-67
2022/05/17 01:44:49;;;;;;;5.30;2.40;;;;;;;;;;5017277;28;20046;-67
2022/05/17 01:47:15;;;;;;;5.45;2.40;;;;;;;;;;5003687;28;20484;-67
2022/05/17 01:49:40;;;;;;;6.50;2.97;;;;;;;;;;5007176;28;20026;-68
2022/05/17 01:52:06;;;;;;;6.72;2.33;;;;;;;;;;5004660;28;20037;-67
2022/05/17 01:54:32;;;;;;;3.15;2.13;;;;;;;;;;5006972;28;20042;-67
2022/05/17 01:56:57;;;;;;;6.53;2.65;;;;;;;;;;5006612;28;20033;-67
2022/05/17 01:59:22;;;;;;;6.38;2.47;;;;;;;;;;5006534;28;20025;-68
2022/05/17 02:01:48;;;;;;;6.47;2.30;;;;;;;;;;5004964;28;20029;-67
2022/05/17 02:04:14;;;;;;;5.53;2.40;;;;;;;;;;5006225;28;20112;-67
2022/05/17 02:06:39;;;;;;;4.25;2.30;;;;;;;;;;5006063;28;20040;-68
2022/05/17 02:09:05;;;;;;;5.60;2.60;;;;;;;;;;5006599;28;20558;-67
2022/05/17 02:11:31;;;;;;;4.85;2.65;;;;;;;;;;5004820;28;20121;-67
2022/05/17 02:13:56;;;;;;;6.13;2.80;;;;;;;;;;5006864;28;20030;-68
2022/05/17 02:16:21;;;;;;;8.63;2.88;;;;;;;;;;5002282;28;20062;-67
2022/05/17 02:18:47;;;;;;;4.72;2.60;;;;;;;;;;5003879;28;20065;-67
2022/05/17 02:21:12;;;;;;;5.03;2.47;;;;;;;;;;5006233;28;20041;-68
2022/05/17 02:23:38;;;;;;;5.32;2.80;;;;;;;;;;5005611;28;20069;-67
2022/05/17 02:26:03;;;;;;;6.97;2.60;;;;;;;;;;5003837;28;20156;-68
2022/05/17 02:28:28;;;;;;;4.85;2.50;;;;;;;;;;5005958;28;20050;-67
2022/05/17 02:30:54;;;;;;;5.45;2.22;;;;;;;;;;5006220;28;20064;-67
2022/05/17 02:33:19;;;;;;;6.45;2.65;;;;;;;;;;5001325;28;20129;-66
2022/05/17 02:35:44;;;;;;;6.35;2.42;;;;;;;;;;5003950;28;20129;-67
2022/05/17 02:38:10;;;;;;;6.05;2.47;;;;;;;;;;5005299;28;20044;-67
2022/05/17 02:40:36;;;;;;;5.88;2.40;;;;;;;;;;5007385;28;20025;-67
2022/05/17 02:43:02;;;;;;;6.20;2.50;;;;;;;;;;5006891;28;20033;-67
2022/05/17 02:45:28;;;;;;;5.28;2.45;;;;;;;;;;5006546;28;20104;-68
2022/05/17 02:47:53;;;;;;;6.50;2.75;;;;;;;;;;5021390;28;20111;-67
2022/05/17 02:50:20;;;;;;;5.72;2.60;;;;;;;;;;5004875;28;20097;-66
2022/05/17 02:52:46;;;;;;;4.63;2.60;;;;;;;;;;5005825;28;20073;-67
2022/05/17 02:55:11;;;;;;;7.78;2.88;;;;;;;;;;5006360;28;20503;-67
2022/05/17 02:57:37;;;;;;;4.95;2.58;;;;;;;;;;5005870;28;20034;-67
2022/05/17 03:00:06;;;;;;;5.53;2.50;;;;;;;;;;5021871;28;20104;-67
2022/05/17 03:02:31;;;;;;;3.90;2.85;;;;;;;;;;5009759;28;20613;-67
2022/05/17 03:04:57;;;;;;;5.70;2.78;;;;;;;;;;5010492;28;20460;-67
2022/05/17 03:07:22;;;;;;;7.28;2.95;;;;;;;;;;5007809;28;20042;-67
2022/05/17 03:09:47;;;;;;;6.10;3.13;;;;;;;;;;5010106;28;20048;-67
2022/05/17 03:12:13;;;;;;;4.05;2.70;;;;;;;;;;5008533;28;20076;-67
2022/05/17 03:14:38;;;;;;;5.03;2.60;;;;;;;;;;5006516;28;20415;-67
2022/05/17 03:17:11;;;;;;;5.00;2.70;;;;;;;;;;5009705;28;20061;-67
2022/05/17 03:19:37;;;;;;;6.78;2.78;;;;;;;;;;5009901;28;20061;-67
2022/05/17 03:22:03;;;;;;;6.30;2.60;;;;;;;;;;5009004;28;20038;-67
2022/05/17 03:24:28;;;;;;;6.80;3.13;;;;;;;;;;5007284;28;20041;-67
2022/05/17 03:26:54;;;;;;;6.47;2.80;;;;;;;;;;5005644;28;20041;-67
2022/05/17 03:29:19;;;;;;;5.13;2.55;;;;;;;;;;5008702;28;20554;-68
2022/05/17 03:31:44;;;;;;;6.47;2.95;;;;;;;;;;5009345;28;20065;-67
2022/05/17 03:34:10;;;;;;;6.45;3.25;;;;;;;;;;5008611;28;20073;-67
2022/05/17 03:36:35;;;;;;;6.57;3.35;;;;;;;;;;5008291;28;20044;-67
2022/05/17 03:39:00;;;;;;;5.80;3.00;;;;;;;;;;5006956;28;20089;-67
2022/05/17 03:41:26;;;;;;;6.03;3.50;;;;;;;;;;5009190;28;20041;-67
2022/05/17 03:43:51;;;;;;;7.32;3.20;;;;;;;;;;5009179;28;20109;-67
2022/05/17 03:46:17;;;;;;;5.55;3.50;;;;;;;;;;5009207;28;20041;-67
2022/05/17 03:48:42;;;;;;;7.65;3.65;;;;;;;;;;5009239;28;20050;-67
2022/05/17 03:51:15;;;;;;;6.65;3.50;;;;;;;;;;5008002;28;20451;-67
2022/05/17 03:53:41;;;;;;;;;;;;;;;;;;5008844;28;20042;-67
2022/05/17 03:56:07;;;;;;;6.47;3.47;;;;;;;;;;5008651;28;19909;-67
2022/05/17 03:58:32;;;;;;;8.43;3.75;;;;;;;;;;5007453;28;20510;-67
2022/05/17 04:00:58;;;;;;;6.40;4.25;;;;;;;;;;5004472;28;20121;-67
2022/05/17 04:03:23;;;;;;;6.10;4.03;;;;;;;;;;5022874;28;20108;-67
2022/05/17 04:05:48;;;;;;;11.18;4.32;;;;;;;;;;5009444;28;20112;-67
2022/05/17 04:08:14;;;;;;;6.40;3.88;;;;;;;;;;5004084;28;20403;-67
2022/05/17 04:10:39;;;;;;;12.90;4.30;;;;;;;;;;5009146;28;20049;-67
2022/05/17 04:13:05;;;;;;;10.57;4.53;;;;;;;;;;5003541;28;20104;-67
2022/05/17 04:15:30;;;;;;;8.70;4.38;;;;;;;;;;5009005;28;20042;-67
2022/05/17 04:17:55;;;;;;;11.73;4.72;;;;;;;;;;5008536;28;20077;-67
2022/05/17 04:20:21;;;;;;;7.45;4.60;;;;;;;;;;5008159;28;20041;-67
2022/05/17 04:22:49;;;;;;;9.77;4.97;;;;;;;;;;5008507;28;20045;-67
2022/05/17 04:25:16;;;;;;;8.30;4.65;;;;;;;;;;4999456;28;20038;-67
2022/05/17 04:27:43;;;;;;;10.55;5.00;;;;;;;;;;5007833;28;20046;-67
2022/05/17 04:30:09;;;;;;;10.45;5.97;;;;;;;;;;5005374;28;20045;-68
2022/05/17 04:32:34;;;;;;;14.75;6.38;;;;;;;;;;5008226;28;20092;-67
2022/05/17 04:35:00;;;;;;;10.50;6.22;;;;;;;;;;5008633;28;20034;-67
2022/05/17 04:37:27;;;;;;;11.88;5.72;;;;;;;;;;5006655;28;20088;-67
2022/05/17 04:39:52;;;;;;;9.60;5.82;;;;;;;;;;5008245;28;20120;-67
2022/05/17 04:42:18;;;;;;;8.75;4.90;;;;;;;;;;5007396;28;20136;-67
2022/05/17 04:44:43;;;;;;;10.05;5.38;;;;;;;;;;5005381;28;20068;-68
2022/05/17 04:47:12;;;;;;;9.57;4.70;;;;;;;;;;5004329;28;20034;-67
2022/05/17 04:49:37;;;;;;;7.00;4.72;;;;;;;;;;5006670;28;20080;-67
2022/05/17 04:52:07;;;;;;;7.50;4.03;;;;;;;;;;5005431;28;20058;-67
2022/05/17 04:54:32;;;;;;;11.73;4.70;;;;;;;;;;5006642;28;20133;-67
2022/05/17 04:56:57;;;;;;;8.00;4.45;;;;;;;;;;5002493;28;20125;-68
2022/05/17 04:59:23;;;;;;;6.38;4.45;;;;;;;;;;5006588;28;20053;-67
2022/05/17 05:01:48;;;;;;;8.18;4.53;;;;;;;;;;5007657;28;20069;-67
2022/05/17 05:04:14;;;;;;;10.38;4.93;;;;;;;;;;5001692;28;20033;-67
2022/05/17 05:06:39;;;;;;;8.70;4.80;;;;;;;;;;5005208;28;20125;-67
2022/05/17 05:09:05;;;;;;;7.40;4.50;;;;;;;;;;5007311;28;20034;-67
2022/05/17 05:11:30;;;;;;;10.00;4.78;;;;;;;;;;4999925;28;20061;-67
2022/05/17 05:13:56;;;;;;;6.75;4.95;;;;;;;;;;5004505;28;20440;-68
2022/05/17 05:16:21;;;;;;;6.47;4.75;;;;;;;;;;5007472;28;20526;-67
2022/05/17 05:18:46;;;;;;;13.18;4.80;;;;;;;;;;5002884;28;20054;-67
2022/05/17 05:21:14;;;;;;;7.15;4.80;;;;;;;;;;5006172;28;20975;-68
2022/05/17 05:23:41;;;;;;;9.23;4.90;;;;;;;;;;5003389;28;20039;-68
2022/05/17 05:26:08;;;;;;;12.55;5.45;;;;;;;;;;5003356;28;20466;-67
2022/05/17 05:28:34;;;;;;;7.28;5.03;;;;;;;;;;4998251;28;20045;-67
2022/05/17 05:31:00;;;;;;;7.97;5.03;;;;;;;;;;5007384;28;20029;-68
2022/05/17 05:33:26;;;;;;;9.35;5.30;;;;;;;;;;5006644;28;20084;-67
2022/05/17 05:35:52;;;;;;;10.43;5.57;;;;;;;;;;5005315;28;20041;-68
2022/05/17 05:38:18;;;;;;;14.80;5.65;;;;;;;;;;5007784;28;20101;-67
2022/05/17 05:40:43;;;;;;;8.55;5.20;;;;;;;;;;5007216;28;20109;-68
2022/05/17 05:43:09;;;;;;;10.85;5.60;;;;;;;;;;5005196;28;20045;-67
2022/05/17 05:45:35;;;;;;;10.98;6.28;;;;;;;;;;5002619;28;20092;-67
2022/05/17 05:48:00;;;;;;;14.60;6.82;;;;;;;;;;5000757;28;20092;-67
2022/05/17 05:50:26;;;;;;;9.95;6.38;;;;;;;;;;5003466;28;20034;-68
2022/05/17 05:52:59;;;;;;;10.10;5.93;;;;;;;;;;5007106;28;20447;-67
2022/05/17 05:55:24;;;;;;;17.57;6.70;;;;;;;;;;5002066;28;20068;-67
2022/05/17 05:57:50;;;;;;;13.73;6.78;;;;;;;;;;5001088;28;20666;-67
2022/05/17 06:00:18;;;;;;;12.05;6.47;;;;;;;;;;5004120;28;20387;-67
2022/05/17 06:02:44;;;;;;;11.57;6.70;;;;;;;;;;5006857;28;20042;-68
2022/05/17 06:05:10;;;;;;;9.25;6.50;;;;;;;;;;5006599;28;20040;-68
2022/05/17 06:07:36;;;;;;;10.32;6.38;;;;;;;;;;5006684;28;20786;-68
2022/05/17 06:10:05;;;;;;;9.90;6.50;;;;;;;;;;5017333;28;20061;-68
2022/05/17 06:12:31;;;;;;;8.85;5.93;;;;;;;;;;4999347;28;20515;-68
2022/05/17 06:14:56;;;;;;;8.85;6.10;;;;;;;;;;4990159;28;20057;-68
2022/05/17 06:17:27;;;;;;;11.35;5.63;;;;;;;;;;4995444;28;20034;-67
2022/05/17 06:19:52;;;;;;;8.77;5.60;;;;;;;;;;4999116;28;20037;-68
2022/05/17 06:22:17;;;;;;;11.60;5.90;;;;;;;;;;4998553;28;20053;-67
2022/05/17 06:24:43;;;;;;;11.60;5.50;;;;;;;;;;4992827;28;20488;-68
2022/05/17 06:27:08;;;;;;;6.80;5.35;;;;;;;;;;4991679;28;20056;-68
2022/05/17 06:29:33;;;;;;;10.65;5.55;;;;;;;;;;4992723;28;20124;-67
2022/05/17 06:31:59;;;;;;;8.32;5.43;;;;;;;;;;5000166;28;20531;-67
2022/05/17 06:34:24;;;;;;;9.13;5.13;;;;;;;;;;4997942;28;20653;-68
2022/05/17 06:36:49;;;;;;;6.07;4.75;;;;;;;;;;4998941;28;20190;-67
2022/05/17 06:39:15;;;;;;;7.32;5.07;;;;;;;;;;4996573;28;20128;-67
2022/05/17 06:41:40;;;;;;;13.02;5.38;;;;;;;;;;4996431;28;20455;-68
2022/05/17 06:44:06;;;;;;;10.98;5.60;;;;;;;;;;5013052;28;20117;-67
2022/05/17 06:46:32;;;;;;;8.15;5.25;;;;;;;;;;5005032;28;20043;-67
2022/05/17 06:48:57;;;;;;;10.27;5.95;;;;;;;;;;5008953;28;20034;-67
2022/05/17 06:51:23;;;;;;;9.90;5.70;;;;;;;;;;5005796;28;20052;-67
2022/05/17 06:53:49;;;;;;;11.32;5.68;;;;;;;;;;5007985;28;20042;-67
2022/05/17 06:56:14;;;;;;;6.47;5.35;;;;;;;;;;5006186;28;20431;-68
2022/05/17 06:58:39;;;;;;;7.75;5.32;;;;;;;;;;5009936;28;20046;-67
2022/05/17 07:01:05;;;;;;;10.10;5.38;;;;;;;;;;5009148;28;20045;-68
2022/05/17 07:03:30;;;;;;;8.63;5.53;;;;;;;;;;5007447;28;20131;-67
2022/05/17 07:05:56;;;;;;;7.40;4.97;;;;;;;;;;5008384;28;20038;-68
2022/05/17 07:08:22;;;;;;;15.23;6.07;;;;;;;;;;5009092;28;20029;-68
2022/05/17 07:13:31;;;;;;;10.07;5.72;;;;;;;;;;5006783;28;20616;-67
2022/05/17 07:15:58;;;;;;;14.52;5.75;;;;;;;;;;5008270;28;20042;-68
2022/05/17 07:18:25;;;;;;;9.20;5.85;;;;;;;;;;5006955;28;20045;-67
2022/05/17 07:20:51;;;;;;;9.75;5.80;;;;;;;;;;5009390;28;20046;-68
2022/05/17 07:23:17;;;;;;;9.52;5.47;;;;;;;;;;5009920;28;20036;-68
2022/05/17 07:25:44;;;;;;;12.20;6.30;;;;;;;;;;5007003;28;20074;-68
2022/05/17 07:28:13;;;;;;;17.55;6.10;;;;;;;;;;5001522;28;20504;-68
2022/05/17 07:30:39;;;;;;;11.57;6.30;;;;;;;;;;5003104;28;20107;-67
2022/05/17 07:33:04;;;;;;;9.27;5.97;;;;;;;;;;5009091;28;20038;-68
2022/05/17 07:35:30;;;;;;;11.05;5.75;;;;;;;;;;5004821;28;20458;-68
2022/05/17 07:37:55;;;;;;;13.73;5.93;;;;;;;;;;4999680;28;20073;-68
2022/05/17 07:40:21;;;;;;;9.73;6.65;;;;;;;;;;4998209;28;20406;-68
2022/05/17 07:42:46;;;;;;;16.80;6.47;;;;;;;;;;4994657;28;20438;-68
2022/05/17 07:45:14;;;;;;;10.95;6.88;;;;;;;;;;4996746;28;20088;-68
2022/05/17 07:47:39;;;;;;;8.65;5.97;;;;;;;;;;5001259;28;20046;-68
2022/05/17 07:50:06;;;;;;;10.43;5.35;;;;;;;;;;4992738;28;20029;-68
2022/05/17 07:52:31;;;;;;;10.63;6.00;;;;;;;;;;4997589;28;20052;-68
2022/05/17 07:54:57;;;;;;;7.93;6.10;;;;;;;;;;4994117;28;20046;-68
2022/05/17 07:57:23;;;;;;;10.80;5.82;;;;;;;;;;4996294;28;20041;-67
2022/05/17 07:59:49;;;;;;;10.30;6.18;;;;;;;;;;5004341;28;20099;-68
2022/05/17 08:02:14;;;;;;;9.07;6.00;;;;;;;;;;5007544;28;20030;-68
2022/05/17 08:04:40;;;;;;;12.55;5.93;;;;;;;;;;5005070;28;20030;-68
2022/05/17 08:07:05;;;;;;;10.65;5.57;;;;;;;;;;5006218;28;20768;-68
2022/05/17 08:09:30;;;;;;;11.65;5.40;;;;;;;;;;5007445;28;20076;-67
2022/05/17 08:11:56;;;;;;;7.25;5.03;;;;;;;;;;5004094;28;20042;-68
2022/05/17 08:14:22;;;;;;;8.45;5.15;;;;;;;;;;5007279;28;20034;-67
2022/05/17 08:16:48;;;;;;;6.70;5.07;;;;;;;;;;5006981;28;20025;-68
2022/05/17 08:19:13;;;;;;;8.63;4.93;;;;;;;;;;5005983;28;20467;-68
2022/05/17 08:21:39;;;;;;;6.82;4.65;;;;;;;;;;5001963;28;20533;-68
2022/05/17 08:24:06;;;;;;;7.38;5.20;;;;;;;;;;5004333;28;20034;-68
2022/05/17 08:29:15;;;;;;;8.23;4.40;;;;;;;;;;4949846;28;1124999;-68
2022/05/17 08:31:41;;;;;;;10.80;4.80;;;;;;;;;;4988718;28;20034;-68
2022/05/17 08:34:08;;;;;;;7.57;3.95;;;;;;;;;;4998297;28;20038;-68
2022/05/17 08:36:34;;;;;;;8.48;4.15;;;;;;;;;;4997830;28;20459;-68
2022/05/17 08:38:59;;;;;;;7.50;3.85;;;;;;;;;;5002014;28;20539;-68
2022/05/17 08:41:31;;;;;;;5.93;3.55;;;;;;;;;;5000993;28;20052;-68
2022/05/17 08:43:56;;;;;;;7.65;4.10;;;;;;;;;;5001570;28;20034;-68
2022/05/17 08:46:26;;;;;;;7.80;3.92;;;;;;;;;;5003017;28;20045;-68
2022/05/17 08:49:01;;;;;;;8.32;4.00;;;;;;;;;;4997136;28;20559;-68
2022/05/17 08:51:43;;;;;;;7.63;3.72;;;;;;;;;;5003530;28;20046;-68
2022/05/17 08:54:13;;;;;;;3.97;3.53;;;;;;;;;;4996006;28;20046;-68
2022/05/17 08:56:46;;;;;;;6.60;3.50;;;;;;;;;;5006823;28;20030;-68
2022/05/17 08:59:18;;;;;;;4.70;3.25;;;;;;;;;;5006889;28;20049;-68
2022/05/17 09:01:47;;;;;;;7.07;3.50;;;;;;;;;;5008492;28;20125;-70
2022/05/17 09:04:54;;;;;;;5.60;3.13;;;;;;;;;;5003281;28;20484;-70
2022/05/17 09:07:26;;;;;;;6.53;3.60;;;;;;;;;;4995299;28;20482;-70
2022/05/17 09:10:07;;;;;;;9.68;3.33;;;;;;;;;;5006786;28;20125;-70
2022/05/17 09:12:52;;;;;;;9.63;3.22;;;;;;;;;;5007489;28;20046;-70
2022/05/17 09:15:18;;;;;;;6.97;3.15;;;;;;;;;;5007554;28;20048;-70
2022/05/17 09:17:45;;;;;;;7.35;2.70;;;;;;;;;;5022557;28;20034;-70
2022/05/17 09:20:16;;;;;;;5.88;2.90;;;;;;;;;;5007794;28;20013;-70
2022/05/17 09:22:41;;;;;;;6.50;3.20;;;;;;;;;;5006127;28;20458;-70
2022/05/17 09:26:03;;;;;;;7.57;3.67;;;;;;;;;;5004567;28;20034;-70
2022/05/17 09:28:49;;;;;;;7.72;3.30;;;;;;;;;;4990507;28;20073;-70
2022/05/17 09:31:23;;;;;;;3.78;2.78;;;;;;;;;;5002613;28;20104;-70
2022/05/17 09:33:50;;;;;;;4.03;2.60;;;;;;;;;;5007222;28;20054;-70
2022/05/17 09:36:31;;;;;;;5.82;2.72;;;;;;;;;;5006128;28;20045;-71
2022/05/17 09:38:59;;;;;;;9.23;4.10;;;;;;;;;;4988090;28;20054;-70
2022/05/17 09:41:34;;;;;;;5.63;2.90;;;;;;;;;;5007014;28;20176;-70
2022/05/17 09:44:20;;;;;;;6.47;2.90;;;;;;;;;;5007850;28;20034;-70
2022/05/17 09:46:49;;;;;;;5.70;2.92;;;;;;;;;;4987454;28;20046;-70
2022/05/17 09:52:32;;;;;;;8.02;3.03;;;;;;;;;;5007033;28;20044;-70
2022/05/17 09:55:27;;;;;;;7.47;2.40;;;;;;;;;;5001670;28;20129;-70
2022/05/17 09:58:06;;;;;;;6.53;2.50;;;;;;;;;;5015310;28;20431;-70
2022/05/17 10:00:40;;;;;;;6.07;2.50;;;;;;;;;;5003425;28;20057;-70
2022/05/17 10:03:27;;;;;;;6.03;2.90;;;;;;;;;;5002989;28;20050;-70
2022/05/17 10:06:00;;;;;;;2.78;2.40;;;;;;;;;;4996683;28;20100;-70
2022/05/17 10:08:29;;;;;;;4.63;2.90;;;;;;;;;;4993094;28;20038;-70
2022/05/17 10:11:14;;;;;;;5.78;2.72;;;;;;;;;;4995506;28;20069;-70
2022/05/17 10:13:45;;;;;;;4.25;2.70;;;;;;;;;;4996253;28;20088;-70
2022/05/17 10:16:40;;;;;;;4.00;2.65;;;;;;;;;;4994626;28;20049;-70
2022/05/17 10:19:22;;;;;;;6.13;2.70;;;;;;;;;;5000579;28;20052;-70
2022/05/17 10:21:57;;;;;;;3.45;2.50;;;;;;;;;;4989454;28;20117;-70
2022/05/17 10:24:36;;;;;;;8.38;2.90;;;;;;;;;;5011470;28;20109;-70
2022/05/17 10:27:09;;;;;;;7.32;2.22;;;;;;;;;;4987912;28;20053;-70
2022/05/17 10:29:53;;;;;;;5.18;2.63;;;;;;;;;;4975339;28;20043;-70
2022/05/17 10:32:26;;;;;;;4.05;2.47;;;;;;;;;;4982294;28;20030;-70
2022/05/17 10:34:57;;;;;;;4.80;2.60;;;;;;;;;;4972210;28;20061;-70
2022/05/17 10:37:33;;;;;;;4.80;2.50;;;;;;;;;;4974371;28;20065;-70
2022/05/17 10:40:08;;;;;;;4.38;2.58;;;;;;;;;;4985785;28;20524;-70
2022/05/17 10:42:35;;;;;;;3.75;2.40;;;;;;;;;;4985818;28;20543;-70
2022/05/17 10:45:02;;;;;;;2.75;2.05;;;;;;;;;;4984893;28;20039;-70
2022/05/17 10:47:47;;;;;;;4.32;2.28;;;;;;;;;;4985239;28;20054;-70
2022/05/17 10:50:25;;;;;;;6.25;2.50;;;;;;;;;;4982164;28;20369;-71
2022/05/17 10:53:09;;;;;;;5.63;2.22;;;;;;;;;;4981262;28;20030;-70
2022/05/17 10:56:12;;;;;;;4.43;2.15;;;;;;;;;;4980253;28;20042;-71
2022/05/17 10:58:49;;;;;;;2.30;2.00;;;;;;;;;;4973237;28;20911;-70
2022/05/17 11:01:22;;;;;;;5.13;2.20;;;;;;;;;;4991140;28;20159;-70
2022/05/17 11:04:09;;;;;;;5.18;2.00;;;;;;;;;;4994880;28;20140;-70
2022/05/17 11:06:53;;;;;;;3.97;1.92;;;;;;;;;;4993749;28;20034;-70
2022/05/17 11:09:40;;;;;;;5.03;2.33;;;;;;;;;;4994372;28;20615;-70
2022/05/17 11:12:13;;;;;;;5.70;2.17;;;;;;;;;;4992595;28;20090;-70
2022/05/17 11:14:53;;;;;;;12.48;2.42;;;;;;;;;;5008350;28;20042;-70
2022/05/17 11:17:50;;;;;;;3.80;2.28;;;;;;;;;;4992394;28;20581;-70
2022/05/17 11:20:22;;;;;;;1.95;1.60;;;;;;;;;;4994499;28;20042;-70
2022/05/17 11:23:03;;;;;;;3.35;2.08;;;;;;;;;;4998150;28;20057;-70
2022/05/17 11:25:47;;;;;;;5.10;1.90;;;;;;;;;;4997607;28;20046;-70
2022/05/17 11:28:24;;;;;;;4.57;1.90;;;;;;;;;;4995496;28;20054;-70
2022/05/17 11:31:00;;;;;;;4.10;2.13;;;;;;;;;;5011198;28;20173;-70
2022/05/17 11:33:38;;;;;;;5.10;1.90;;;;;;;;;;4996703;28;20081;-70
2022/05/17 11:36:09;;;;;;;2.40;1.13;;;;;;;;;;4995824;28;21393;-70
2022/05/17 11:38:34;;;;;;;3.95;1.80;;;;;;;;;;4993254;28;20054;-71
2022/05/17 11:41:21;;;;;;;2.25;1.48;;;;;;;;;;4997588;28;20511;-70
2022/05/17 11:43:56;;;;;;;2.88;1.45;;;;;;;;;;4993397;28;20054;-70
2022/05/17 11:46:24;;;;;;;3.90;1.70;;;;;;;;;;4995115;28;20046;-70
2022/05/17 11:49:02;;;;;;;2.80;1.77;;;;;;;;;;4994196;28;20053;-70
2022/05/17 11:51:33;;;;;;;2.10;1.50;;;;;;;;;;4995319;28;20049;-70
2022/05/17 11:54:00;;;;;;;4.05;1.42;;;;;;;;;;5005379;28;20044;-70
2022/05/17 11:56:25;;;;;;;7.25;1.30;;;;;;;;;;4999624;28;20041;-70
2022/05/17 11:58:59;;;;;;;5.10;1.75;;;;;;;;;;5001374;28;20037;-71
2022/05/17 12:01:31;;;;;;;2.35;1.30;;;;;;;;;;4995960;28;20042;-70
2022/05/17 12:04:06;;;;;;;6.22;1.70;;;;;;;;;;5010634;28;20085;-70
2022/05/17 12:07:04;;;;;;;3.15;1.60;;;;;;;;;;4995954;28;20038;-71
2022/05/17 12:09:54;;;;;;;9.98;1.63;;;;;;;;;;4995232;28;20507;-70
2022/05/17 12:12:36;;;;;;;4.40;1.85;;;;;;;;;;4996045;28;20069;-70
2022/05/17 12:15:11;;;;;;;3.87;1.80;;;;;;;;;;4996663;28;20050;-70
2022/05/17 12:17:46;;;;;;;3.22;1.80;;;;;;;;;;4993975;28;20289;-70
2022/05/17 12:20:49;;;;;;;6.72;1.70;;;;;;;;;;4994014;28;20585;-70
2022/05/17 12:23:21;;;;;;;3.27;1.40;;;;;;;;;;4995850;28;20147;-70
2022/05/17 12:25:46;;;;;;;3.72;1.67;;;;;;;;;;4996751;28;20297;-70
2022/05/17 12:28:20;;;;;;;3.85;1.70;;;;;;;;;;5003081;28;20169;-70
2022/05/17 12:30:54;;;;;;;3.47;1.60;;;;;;;;;;4995254;28;20201;-70
2022/05/17 12:33:24;;;;;;;2.63;1.35;;;;;;;;;;4996755;28;20132;-70
2022/05/17 12:35:51;;;;;;;2.88;1.23;;;;;;;;;;4993463;28;20064;-70
2022/05/17 12:44:06;;;;;;;4.03;1.60;;;;;;;;;;5003135;28;20049;-71
2022/05/17 12:46:34;;;;;;;2.75;1.45;;;;;;;;;;4995717;28;20048;-70
2022/05/17 12:49:09;;;;;;;5.75;1.65;;;;;;;;;;5001367;28;20133;-71
2022/05/17 12:51:35;;;;;;;3.05;1.60;;;;;;;;;;5000941;28;21152;-70
2022/05/17 12:54:03;;;;;;;4.00;1.70;;;;;;;;;;4994065;28;20053;-70
2022/05/17 12:56:36;;;;;;;2.35;1.40;;;;;;;;;;4999318;28;20048;-70
2022/05/17 12:59:05;;;;;;;2.28;1.40;;;;;;;;;;4999345;28;20396;-70
2022/05/17 13:01:38;;;;;;;1.60;1.30;;;;;;;;;;4997306;28;20045;-70
2022/05/17 13:04:12;;;;;;;3.80;1.48;;;;;;;;;;5000619;28;20128;-70
2022/05/17 13:06:51;;;;;;;4.70;1.20;;;;;;;;;;4998271;28;20044;-70
2022/05/17 13:09:20;;;;;;;3.17;1.50;;;;;;;;;;5000462;28;20042;-70
2022/05/17 13:11:46;;;;;;;2.80;1.50;;;;;;;;;;4998584;28;20104;-71
2022/05/17 13:14:33;;;;;;;3.30;1.40;;;;;;;;;;4998991;28;20029;-71
2022/05/17 13:17:12;;;;;;;3.17;1.70;;;;;;;;;;4995574;28;20031;-70
2022/05/17 13:19:40;;;;;;;4.10;1.85;;;;;;;;;;5004712;28;20085;-70
2022/05/17 13:22:06;;;;;;;4.97;1.63;;;;;;;;;;4996029;28;20041;-70
2022/05/17 13:24:34;;;;;;;1.70;1.50;;;;;;;;;;4997652;28;20073;-70
2022/05/17 13:27:10;;;;;;;2.08;1.48;;;;;;;;;;4996306;28;20056;-70
2022/05/17 13:29:37;;;;;;;2.22;1.60;;;;;;;;;;4996774;28;20034;-70
2022/05/17 13:32:25;;;;;;;3.20;1.55;;;;;;;;;;4999858;28;20042;-71
2022/05/17 13:35:08;;;;;;;2.33;1.30;;;;;;;;;;5000218;28;20189;-71
2022/05/17 13:37:35;;;;;;;10.43;1.63;;;;;;;;;;4996324;28;20061;-70
2022/05/17 13:40:02;;;;;;;2.25;1.40;;;;;;;;;;5000099;28;20042;-70
2022/05/17 13:42:47;;;;;;;2.35;1.23;;;;;;;;;;5000968;28;20563;-70
2022/05/17 13:45:36;;;;;;;3.20;1.30;;;;;;;;;;4999754;28;20132;-71
2022/05/17 13:48:01;;;;;;;5.03;1.83;;;;;;;;;;4994821;28;20042;-70
2022/05/17 13:50:30;;;;;;;4.32;1.55;;;;;;;;;;5000304;28;20091;-71
2022/05/17 13:53:00;;;;;;;3.88;1.30;;;;;;;;;;4996683;28;20073;-71
2022/05/17 13:55:31;;;;;;;4.82;1.88;;;;;;;;;;5001867;28;20416;-70
2022/05/17 13:57:59;;;;;;;8.30;5.32;;;;;;;;;;4991756;28;20551;-71
2022/05/17 14:00:28;;;;;;;5.35;1.70;;;;;;;;;;4997350;28;20072;-71
2022/05/17 14:02:57;;;;;;;2.85;1.60;;;;;;;;;;4999168;28;20053;-70
2022/05/17 14:05:52;;;;;;;3.63;1.50;;;;;;;;;;4999551;28;20117;-70
2022/05/17 14:14:08;;;;;;;3.53;1.42;;;;;;;;;;5000160;28;20602;-70
2022/05/17 14:16:37;;;;;;;3.03;1.40;;;;;;;;;;5013708;28;20041;-70
2022/05/17 14:19:06;;;;;;;3.42;1.60;;;;;;;;;;4998823;28;20050;-70
2022/05/17 14:21:32;;;;;;;2.35;1.55;;;;;;;;;;5000996;28;20034;-70
2022/05/17 14:23:57;;;;;;;2.38;1.42;;;;;;;;;;4996524;28;20061;-70
2022/05/17 14:26:24;;;;;;;6.88;1.50;;;;;;;;;;4999742;28;20041;-70
2022/05/17 14:28:51;;;;;;;3.38;1.20;;;;;;;;;;5017012;28;20053;-70
2022/05/17 14:31:27;;;;;;;2.78;1.50;;;;;;;;;;4999928;28;20037;-70
2022/05/17 14:33:55;;;;;;;2.88;1.27;;;;;;;;;;4998770;28;20447;-70
2022/05/17 14:36:25;;;;;;;2.63;1.35;;;;;;;;;;4993538;28;20046;-70
2022/05/17 14:38:51;;;;;;;2.72;1.45;;;;;;;;;;4993275;28;20049;-70
2022/05/17 14:41:17;;;;;;;3.35;1.52;;;;;;;;;;4997269;28;20034;-70
2022/05/17 14:43:44;;;;;;;5.10;1.33;;;;;;;;;;4992613;28;20041;-70
2022/05/17 14:46:14;;;;;;;3.45;1.20;;;;;;;;;;4998313;28;20046;-70
2022/05/17 14:48:40;;;;;;;1.65;1.30;;;;;;;;;;4998661;28;20057;-70
2022/05/17 14:51:08;;;;;;;2.42;1.23;;;;;;;;;;4997299;28;20053;-70
2022/05/17 14:53:34;;;;;;;1.88;1.20;;;;;;;;;;5012823;28;20442;-70
2022/05/17 14:55:59;;;;;;;4.32;1.30;;;;;;;;;;5000655;28;20588;-70
2022/05/17 14:58:25;;;;;;;3.72;1.70;;;;;;;;;;5019342;28;20114;-70
2022/05/17 15:00:51;;;;;;;2.53;1.25;;;;;;;;;;5001814;28;20053;-70
2022/05/17 15:03:23;;;;;;;2.22;1.30;;;;;;;;;;5001483;28;20149;-70
2022/05/17 15:05:49;;;;;;;3.33;1.77;;;;;;;;;;4998285;28;20041;-70
2022/05/17 15:08:15;;;;;;;1.60;1.20;;;;;;;;;;5004382;28;20125;-70
2022/05/17 15:10:41;;;;;;;4.45;1.10;;;;;;;;;;5000406;28;20113;-70
2022/05/17 15:13:06;;;;;;;3.40;1.20;;;;;;;;;;5003804;28;20447;-70
2022/05/17 15:15:32;;;;;;;1.58;1.20;;;;;;;;;;5001691;28;20464;-70
2022/05/17 15:18:05;;;;;;;3.63;1.35;;;;;;;;;;5001699;28;20046;-70